Time;durP1;ratioP1;P1;durP2;ratioP2;P2;SDS_P1;SDS_P2;PMS_P1;PMS_P2;Temp;Humidity;BMP_temperature;BMP_pressure;BME280_temperature;BME280_humidity;BME280_pressure;Samples;Min_cycle;Max_cycle;Signal;HPM_P1;HPM_P2
2022/02/16 00:01:11;;;;;;;2.40;1.25;;;-4.90;99.90;;;;;;5032317;28;20025;-67
2022/02/16 00:03:36;;;;;;;2.25;1.30;;;-4.90;99.90;;;;;;5032304;28;20500;-67
2022/02/16 00:06:03;;;;;;;0.85;0.80;;;-4.90;99.90;;;;;;5032322;28;20087;-67
2022/02/16 00:08:29;;;;;;;4.15;1.58;;;-4.90;99.90;;;;;;5032270;28;20045;-67
2022/02/16 00:10:54;;;;;;;6.22;2.13;;;-4.90;99.90;;;;;;5032003;28;20053;-68
2022/02/16 00:13:20;;;;;;;1.70;1.05;;;-4.90;99.90;;;;;;5014291;28;20041;-67
2022/02/16 00:15:46;;;;;;;3.83;1.48;;;-4.90;99.90;;;;;;5032389;28;20144;-67
2022/02/16 00:18:14;;;;;;;4.32;1.40;;;-4.90;99.90;;;;;;5031916;28;20025;-66
2022/02/16 00:20:40;;;;;;;1.40;1.30;;;-4.90;99.90;;;;;;5014861;28;20025;-66
2022/02/16 00:23:06;;;;;;;5.22;1.60;;;-4.90;99.90;;;;;;5031913;28;20104;-66
2022/02/16 00:25:31;;;;;;;2.22;1.23;;;-4.90;99.90;;;;;;5032027;28;20045;-66
2022/02/16 00:27:57;;;;;;;4.13;1.33;;;-4.90;99.90;;;;;;5031815;28;20366;-66
2022/02/16 00:30:23;;;;;;;1.33;1.10;;;-4.90;99.90;;;;;;5031955;28;20018;-66
2022/02/16 00:32:49;;;;;;;3.33;1.45;;;-4.90;99.90;;;;;;5031770;28;20033;-66
2022/02/16 00:35:15;;;;;;;5.57;1.63;;;-4.90;99.90;;;;;;5031744;28;20029;-66
2022/02/16 00:37:41;;;;;;;4.95;1.38;;;-4.90;99.90;;;;;;5013819;28;20500;-66
2022/02/16 00:40:07;;;;;;;2.33;1.20;;;-4.90;99.90;;;;;;5031909;28;20022;-67
2022/02/16 00:42:33;;;;;;;6.70;1.83;;;-4.90;99.90;;;;;;5031833;28;20036;-66
2022/02/16 00:44:59;;;;;;;1.42;1.20;;;-4.90;99.90;;;;;;5031685;28;20021;-66
2022/02/16 00:47:25;;;;;;;2.95;1.20;;;-4.90;99.90;;;;;;5031619;28;20021;-66
2022/02/16 00:49:51;;;;;;;2.97;1.30;;;-4.90;99.90;;;;;;5031814;28;20107;-66
2022/02/16 00:52:18;;;;;;;1.55;1.15;;;-4.90;99.90;;;;;;5031488;28;20477;-67
2022/02/16 00:54:44;;;;;;;4.13;1.45;;;-4.90;99.90;;;;;;5031751;28;20469;-66
2022/02/16 00:57:09;;;;;;;3.35;1.23;;;-4.90;99.90;;;;;;5031560;28;20029;-66
2022/02/16 00:59:35;;;;;;;3.13;1.27;;;-4.90;99.90;;;;;;5031608;28;20053;-66
2022/02/16 01:02:01;;;;;;;4.18;1.52;;;-4.90;99.90;;;;;;5031723;28;20040;-67
2022/02/16 01:04:27;;;;;;;1.40;1.25;;;-4.90;99.90;;;;;;5031738;28;20017;-67
2022/02/16 01:06:53;;;;;;;4.65;1.35;;;-4.90;99.90;;;;;;5031603;28;20032;-67
2022/02/16 01:09:19;;;;;;;2.13;1.27;;;-4.90;99.90;;;;;;5034619;28;20021;-67
2022/02/16 01:11:45;;;;;;;4.72;1.33;;;-4.90;99.90;;;;;;5035374;28;20366;-67
2022/02/16 01:14:11;;;;;;;4.32;1.60;;;-4.90;99.90;;;;;;5035352;28;20480;-67
2022/02/16 01:16:37;;;;;;;4.68;1.63;;;-5.00;99.90;;;;;;5035644;28;20070;-67
2022/02/16 01:19:04;;;;;;;1.33;1.00;;;-5.00;99.90;;;;;;5035334;28;20476;-67
2022/02/16 01:21:29;;;;;;;3.50;1.35;;;-5.00;99.90;;;;;;5035294;28;20033;-67
2022/02/16 01:23:55;;;;;;;4.88;1.13;;;-4.90;99.90;;;;;;5018418;28;20021;-67
2022/02/16 01:26:23;;;;;;;2.60;1.30;;;-4.90;99.90;;;;;;5015272;28;20068;-67
2022/02/16 01:28:49;;;;;;;3.92;1.20;;;-5.00;99.90;;;;;;5015409;28;20025;-67
2022/02/16 01:31:15;;;;;;;2.90;1.10;;;-5.00;99.90;;;;;;5015064;28;20113;-67
2022/02/16 01:33:41;;;;;;;5.60;1.67;;;-4.90;99.90;;;;;;5015193;28;20116;-67
2022/02/16 01:36:06;;;;;;;3.22;1.38;;;-4.90;99.90;;;;;;5014965;28;20045;-67
2022/02/16 01:38:33;;;;;;;7.50;1.70;;;-4.90;99.90;;;;;;5015053;28;20057;-66
2022/02/16 01:40:59;;;;;;;6.72;1.40;;;-5.00;99.90;;;;;;5015247;28;20055;-66
2022/02/16 01:43:24;;;;;;;4.07;1.05;;;-5.00;99.90;;;;;;5014977;28;20022;-66
2022/02/16 01:45:50;;;;;;;3.95;1.27;;;-5.00;99.90;;;;;;5015331;28;20029;-66
2022/02/16 01:48:16;;;;;;;3.03;1.20;;;-5.00;99.90;;;;;;5014852;28;20381;-66
2022/02/16 01:50:41;;;;;;;1.70;1.13;;;-5.00;99.90;;;;;;5015011;28;20029;-66
2022/02/16 01:53:07;;;;;;;3.05;1.20;;;-5.00;99.90;;;;;;5014719;28;20061;-66
2022/02/16 01:55:33;;;;;;;3.70;1.67;;;-5.00;99.90;;;;;;5014868;28;20065;-66
2022/02/16 01:58:01;;;;;;;2.67;1.20;;;-5.00;99.90;;;;;;5014577;28;20038;-66
2022/02/16 02:00:26;;;;;;;1.20;1.10;;;-5.00;99.90;;;;;;5014722;28;20029;-66
2022/02/16 02:02:52;;;;;;;5.05;1.30;;;-5.00;99.90;;;;;;5014929;28;20026;-69
2022/02/16 02:05:18;;;;;;;2.60;1.30;;;-5.00;99.90;;;;;;5014827;28;20036;-71
2022/02/16 02:07:44;;;;;;;1.20;1.13;;;-5.00;99.90;;;;;;5014623;28;20109;-71
2022/02/16 02:10:10;;;;;;;1.38;1.10;;;-5.00;99.90;;;;;;5014492;28;20022;-71
2022/02/16 02:12:46;;;;;;;2.80;1.10;;;-5.00;99.90;;;;;;5014745;28;20120;-70
2022/02/16 02:15:12;;;;;;;2.50;1.45;;;-5.00;99.90;;;;;;5014623;28;20389;-70
2022/02/16 02:17:39;;;;;;;3.78;1.10;;;-5.00;99.90;;;;;;4996841;28;20022;-70
2022/02/16 02:20:16;;;;;;;2.58;1.63;;;-5.00;99.90;;;;;;5014462;28;20072;-70
2022/02/16 02:22:42;;;;;;;6.22;1.45;;;-5.00;99.90;;;;;;5014682;28;20038;-70
2022/02/16 02:51:47;;;;;;;2.30;1.17;;;-5.00;99.90;;;;;;5004101;28;20528;-70
2022/02/16 02:54:13;;;;;;;1.30;1.20;;;-4.90;99.90;;;;;;5013740;28;20029;-70
2022/02/16 02:56:39;;;;;;;5.90;1.50;;;-4.90;99.90;;;;;;4996037;28;20034;-70
2022/02/16 02:59:05;;;;;;;4.53;1.50;;;-4.90;99.90;;;;;;5013701;28;20029;-70
2022/02/16 03:01:30;;;;;;;1.23;1.10;;;-4.90;99.90;;;;;;5013529;28;20026;-71
2022/02/16 03:37:36;;;;;;;3.00;1.30;;;-4.90;99.90;;;;;;5623417;22;20087;-67
2022/02/16 03:40:02;;;;;;;2.70;1.17;;;-4.90;99.90;;;;;;5032771;28;20037;-66
2022/02/16 03:42:28;;;;;;;3.58;1.40;;;-4.90;99.90;;;;;;5014871;28;20476;-67
2022/02/16 03:44:54;;;;;;;2.75;1.33;;;-4.90;99.90;;;;;;5032631;28;20036;-68
2022/02/16 03:47:20;;;;;;;2.75;1.30;;;-4.90;99.90;;;;;;5032375;28;20026;-68
2022/02/16 03:49:45;;;;;;;6.07;1.20;;;-4.90;99.90;;;;;;5032600;28;20033;-68
2022/02/16 03:52:11;;;;;;;4.65;1.30;;;-4.90;99.90;;;;;;5032301;28;20072;-68
2022/02/16 03:54:37;;;;;;;5.22;1.63;;;-4.90;99.90;;;;;;5032707;28;20032;-68
2022/02/16 03:57:03;;;;;;;4.03;1.08;;;-4.90;99.90;;;;;;5032433;28;20021;-68
2022/02/16 03:59:29;;;;;;;6.45;1.20;;;-4.90;99.90;;;;;;5032276;28;20021;-68
2022/02/16 04:01:55;;;;;;;4.78;1.20;;;-4.90;99.90;;;;;;5014611;28;20029;-68
2022/02/16 04:04:21;;;;;;;4.57;1.23;;;-4.90;99.90;;;;;;5032095;28;20026;-68
2022/02/16 04:06:47;;;;;;;2.25;1.38;;;-4.90;99.90;;;;;;5032248;28;20099;-68
2022/02/16 04:09:14;;;;;;;3.75;1.25;;;-4.90;99.90;;;;;;5014436;28;20049;-68
2022/02/16 04:11:40;;;;;;;1.45;1.00;;;-4.90;99.90;;;;;;5032458;28;20041;-68
2022/02/16 04:14:06;;;;;;;4.38;1.40;;;-4.90;99.90;;;;;;5032301;28;20484;-68
2022/02/16 04:16:32;;;;;;;4.10;1.25;;;-4.90;99.90;;;;;;5032578;28;20071;-68
2022/02/16 04:18:57;;;;;;;3.33;1.45;;;-4.90;99.90;;;;;;5032434;28;20108;-68
2022/02/16 04:21:23;;;;;;;3.10;1.20;;;-4.80;99.90;;;;;;5032033;28;20021;-68
2022/02/16 04:23:49;;;;;;;1.83;1.45;;;-4.80;99.90;;;;;;5032162;28;20140;-67
2022/02/16 04:26:14;;;;;;;5.20;1.35;;;-4.80;99.90;;;;;;5032293;28;20385;-67
2022/02/16 04:28:40;;;;;;;2.38;1.10;;;-4.80;99.90;;;;;;5032230;28;20484;-65
2022/02/16 04:31:06;;;;;;;6.57;1.45;;;-4.80;99.90;;;;;;5031819;28;20075;-65
2022/02/16 04:33:32;;;;;;;3.38;1.40;;;-4.80;99.90;;;;;;5031896;28;20083;-65
2022/02/16 04:35:57;;;;;;;5.35;1.33;;;-4.90;99.90;;;;;;5031937;28;20029;-68
2022/02/16 04:38:23;;;;;;;5.18;1.42;;;-4.90;99.90;;;;;;5031512;28;20041;-65
2022/02/16 04:40:49;;;;;;;1.80;1.23;;;-4.80;99.90;;;;;;5031914;28;20121;-65
2022/02/16 04:43:14;;;;;;;7.72;1.92;;;-4.80;99.90;;;;;;5032847;28;20017;-68
2022/02/16 04:45:40;;;;;;;2.95;1.15;;;-4.80;99.90;;;;;;5036165;28;20036;-66
2022/02/16 04:48:06;;;;;;;5.43;2.17;;;-4.80;99.90;;;;;;5035752;28;20022;-64
2022/02/16 04:50:32;;;;;;;6.47;1.23;;;-4.80;99.90;;;;;;5035991;28;20029;-65
2022/02/16 04:52:58;;;;;;;2.58;1.23;;;-4.80;99.90;;;;;;5035630;28;20033;-65
2022/02/16 04:55:25;;;;;;;1.98;1.38;;;-4.90;99.90;;;;;;5017975;28;20148;-65
2022/02/16 04:57:52;;;;;;;3.10;1.42;;;-4.90;99.90;;;;;;5035751;28;20033;-65
2022/02/16 05:00:19;;;;;;;3.42;1.33;;;-4.90;99.90;;;;;;5035442;28;20026;-65
2022/02/16 05:02:45;;;;;;;3.08;1.45;;;-4.90;99.90;;;;;;5035566;28;20562;-65
2022/02/16 05:05:10;;;;;;;2.85;1.20;;;-4.90;99.90;;;;;;5035431;28;20057;-65
2022/02/16 05:07:37;;;;;;;3.95;1.45;;;-4.90;99.90;;;;;;5035565;28;20064;-65
2022/02/16 05:10:04;;;;;;;2.90;1.23;;;-4.90;99.90;;;;;;5035680;28;20049;-65
2022/02/16 05:12:34;;;;;;;2.72;1.20;;;-4.80;99.90;;;;;;5035018;28;20038;-65
2022/02/16 05:15:02;;;;;;;6.20;1.70;;;-4.80;99.90;;;;;;5017504;28;20105;-65
2022/02/16 05:17:28;;;;;;;8.10;1.25;;;-4.80;99.90;;;;;;5035129;28;20117;-65
2022/02/16 05:19:54;;;;;;;3.17;1.23;;;-4.80;99.90;;;;;;5035570;28;20096;-67
2022/02/16 05:22:20;;;;;;;3.90;1.30;;;-4.80;99.90;;;;;;5035105;28;20485;-65
2022/02/16 05:24:46;;;;;;;4.15;1.17;;;-4.80;99.90;;;;;;5035188;28;20452;-65
2022/02/16 05:27:12;;;;;;;2.28;1.65;;;-4.80;99.90;;;;;;5035291;28;20030;-66
2022/02/16 05:29:37;;;;;;;1.95;1.13;;;-4.80;99.90;;;;;;5035019;28;20057;-65
2022/02/16 05:32:03;;;;;;;6.93;1.20;;;-4.80;99.90;;;;;;5035244;28;20128;-64
2022/02/16 05:34:29;;;;;;;2.47;1.30;;;-4.80;99.90;;;;;;5034836;28;20021;-65
2022/02/16 05:36:55;;;;;;;3.92;1.30;;;-4.70;99.90;;;;;;5034835;28;20052;-67
2022/02/16 05:39:21;;;;;;;2.22;1.27;;;-4.70;99.90;;;;;;5034745;28;20503;-65
2022/02/16 05:41:47;;;;;;;5.43;1.40;;;-4.50;99.90;;;;;;5034630;28;20116;-67
2022/02/16 05:44:12;;;;;;;2.95;1.30;;;-3.00;99.90;;;;;;5034621;28;20062;-66
2022/02/16 05:46:38;;;;;;;1.58;1.08;;;-3.30;99.90;;;;;;5034553;28;20022;-66
2022/02/16 05:49:08;;;;;;;1.88;1.00;;;-3.80;99.90;;;;;;5034005;28;20036;-64
2022/02/16 05:51:34;;;;;;;2.92;1.25;;;-4.10;99.90;;;;;;5033898;28;20056;-66
2022/02/16 05:54:01;;;;;;;3.83;1.10;;;-4.30;99.90;;;;;;5033651;28;20036;-66
2022/02/16 05:56:26;;;;;;;7.93;1.27;;;-4.40;99.90;;;;;;5033429;28;20123;-66
2022/02/16 05:58:52;;;;;;;3.97;1.30;;;-4.50;99.90;;;;;;5034161;28;20480;-64
2022/02/16 06:01:18;;;;;;;5.88;1.20;;;-4.50;99.90;;;;;;5033327;28;20013;-63
2022/02/16 06:03:44;;;;;;;2.42;1.40;;;-4.60;99.90;;;;;;5033723;28;20029;-63
2022/02/16 06:06:10;;;;;;;3.60;1.17;;;-4.60;99.90;;;;;;5034343;28;20360;-64
2022/02/16 06:08:36;;;;;;;1.98;0.93;;;-4.60;99.90;;;;;;5033905;28;20114;-64
2022/02/16 06:11:02;;;;;;;1.70;1.00;;;-4.60;99.90;;;;;;5031364;28;20028;-64
2022/02/16 06:13:29;;;;;;;4.35;1.10;;;-4.60;99.90;;;;;;5033492;28;20069;-67
2022/02/16 06:15:54;;;;;;;1.05;0.90;;;-4.60;99.90;;;;;;5034190;28;20018;-65
2022/02/16 06:18:20;;;;;;;10.43;1.33;;;-4.60;99.90;;;;;;5034107;28;20451;-65
2022/02/16 06:20:46;;;;;;;1.23;1.10;;;-4.60;99.90;;;;;;5034142;28;20017;-64
2022/02/16 06:23:12;;;;;;;7.07;1.35;;;-4.70;99.90;;;;;;5034053;28;20033;-64
2022/02/16 06:25:38;;;;;;;3.15;1.35;;;-4.70;99.90;;;;;;5034066;28;20459;-64
2022/02/16 06:28:04;;;;;;;3.47;1.33;;;-4.50;99.90;;;;;;5033951;28;20036;-64
2022/02/16 06:30:30;;;;;;;1.98;1.00;;;-4.50;99.90;;;;;;5033991;28;20044;-64
2022/02/16 06:32:57;;;;;;;2.78;1.20;;;-4.60;99.90;;;;;;5034044;28;20044;-64
2022/02/16 06:35:23;;;;;;;4.30;1.27;;;-4.60;99.90;;;;;;5034045;28;20372;-64
2022/02/16 06:37:49;;;;;;;2.22;1.00;;;-4.70;99.90;;;;;;5033528;28;20523;-64
2022/02/16 06:40:15;;;;;;;4.03;1.30;;;-4.70;99.90;;;;;;5033701;28;20025;-64
2022/02/16 06:42:41;;;;;;;1.25;1.10;;;-4.70;99.90;;;;;;5033690;28;20038;-64
2022/02/16 06:45:09;;;;;;;3.47;1.52;;;-4.70;99.90;;;;;;5033901;28;20117;-64
2022/02/16 06:47:35;;;;;;;4.22;1.45;;;-4.80;99.90;;;;;;5033625;28;20485;-64
2022/02/16 06:50:01;;;;;;;9.52;1.40;;;-4.80;99.90;;;;;;5015545;28;20060;-65
2022/02/16 06:52:27;;;;;;;6.38;1.55;;;-4.80;99.90;;;;;;5015657;28;20092;-65
2022/02/16 06:54:52;;;;;;;4.70;1.15;;;-4.80;99.90;;;;;;5013732;28;20018;-64
2022/02/16 06:57:18;;;;;;;4.72;1.40;;;-3.60;99.90;;;;;;5015666;28;20071;-64
2022/02/16 06:59:44;;;;;;;3.78;1.02;;;-3.80;99.90;;;;;;5028669;28;20108;-64
2022/02/16 07:02:10;;;;;;;14.20;1.83;;;-4.20;99.90;;;;;;5025074;28;20496;-64
2022/02/16 07:04:36;;;;;;;3.20;1.48;;;-4.40;99.90;;;;;;5022038;28;20567;-66
2022/02/16 07:07:03;;;;;;;5.32;1.20;;;-4.50;99.90;;;;;;5029315;28;20013;-67
2022/02/16 07:09:29;;;;;;;1.98;1.15;;;-4.50;99.90;;;;;;5032656;28;20049;-64
2022/02/16 07:11:55;;;;;;;1.52;1.10;;;-3.60;99.90;;;;;;5014902;28;20068;-66
2022/02/16 07:14:25;;;;;;;1.77;1.13;;;-3.40;99.90;;;;;;5031959;28;20053;-66
2022/02/16 07:16:51;;;;;;;3.25;1.10;;;-3.80;99.90;;;;;;5032645;28;20029;-66
2022/02/16 07:19:19;;;;;;;5.32;1.25;;;-4.20;99.90;;;;;;5032402;28;20031;-66
2022/02/16 07:21:45;;;;;;;1.80;1.05;;;-4.40;99.90;;;;;;5032528;28;20025;-66
2022/02/16 07:24:11;;;;;;;2.50;1.20;;;-4.50;99.90;;;;;;5032440;28;20074;-65
2022/02/16 07:26:37;;;;;;;2.60;1.40;;;-4.60;99.90;;;;;;5033064;28;20040;-65
2022/02/16 07:29:03;;;;;;;3.83;1.00;;;-4.60;99.90;;;;;;5032894;28;20033;-66
2022/02/16 07:31:29;;;;;;;2.35;1.13;;;-4.60;99.90;;;;;;5033020;28;20376;-66
2022/02/16 07:33:55;;;;;;;3.47;1.20;;;-4.60;99.90;;;;;;5032929;28;20029;-65
2022/02/16 07:36:21;;;;;;;4.15;1.05;;;-4.60;99.90;;;;;;5032643;28;20030;-65
2022/02/16 07:38:47;;;;;;;0.98;0.95;;;-4.70;99.90;;;;;;5032554;28;20061;-66
2022/02/16 07:41:13;;;;;;;3.22;1.20;;;-4.70;99.90;;;;;;5032766;28;20021;-68
2022/02/16 07:43:38;;;;;;;2.35;1.30;;;-4.80;99.90;;;;;;5029710;28;20479;-67
2022/02/16 07:46:04;;;;;;;1.70;1.00;;;-4.80;99.90;;;;;;5034981;28;20096;-67
2022/02/16 07:48:30;;;;;;;1.25;0.90;;;-4.80;99.90;;;;;;5040291;28;20388;-68
2022/02/16 07:50:56;;;;;;;2.38;1.27;;;-4.80;99.90;;;;;;5041619;28;20427;-67
2022/02/16 07:53:22;;;;;;;1.10;1.00;;;-4.80;99.90;;;;;;5044809;28;20085;-65
2022/02/16 07:55:51;;;;;;;5.70;1.50;;;-4.90;99.90;;;;;;5034414;28;20050;-65
2022/02/16 07:58:17;;;;;;;1.73;1.20;;;-4.90;99.90;;;;;;5031764;28;20034;-65
2022/02/16 08:00:43;;;;;;;0.90;0.85;;;-5.00;99.90;;;;;;5031193;28;20551;-65
2022/02/16 08:03:09;;;;;;;2.28;1.05;;;-5.00;99.90;;;;;;5010988;28;20056;-64
2022/02/16 08:05:35;;;;;;;1.70;1.13;;;-5.00;99.90;;;;;;5032095;28;20036;-65
2022/02/16 08:08:01;;;;;;;1.25;0.90;;;-5.00;99.90;;;;;;5032362;28;20076;-65
2022/02/16 08:10:28;;;;;;;3.10;1.30;;;-5.00;99.90;;;;;;5031879;28;20054;-65
2022/02/16 08:12:59;;;;;;;1.88;1.02;;;-5.00;99.90;;;;;;5032374;28;20033;-65
2022/02/16 08:15:26;;;;;;;2.15;1.20;;;-5.00;99.90;;;;;;5032155;28;20381;-64
2022/02/16 08:17:52;;;;;;;5.97;1.35;;;-5.00;99.90;;;;;;5031895;28;20083;-63
2022/02/16 08:20:19;;;;;;;2.50;1.30;;;-3.90;99.90;;;;;;5032114;28;20021;-64
2022/02/16 08:22:45;;;;;;;4.65;1.33;;;-3.70;99.90;;;;;;5032049;28;20385;-63
2022/02/16 08:25:11;;;;;;;3.15;1.48;;;-4.00;99.90;;;;;;5031726;28;20036;-64
2022/02/16 08:27:37;;;;;;;2.70;1.30;;;-4.30;99.90;;;;;;5031971;28;20366;-64
2022/02/16 08:30:04;;;;;;;3.50;0.95;;;-4.50;99.90;;;;;;5032251;28;20033;-63
2022/02/16 08:32:30;;;;;;;2.92;1.20;;;-4.60;99.90;;;;;;5032034;28;20037;-64
2022/02/16 08:34:56;;;;;;;3.25;1.20;;;-4.60;99.90;;;;;;5032176;28;20032;-64
2022/02/16 08:37:22;;;;;;;4.85;1.40;;;-4.70;99.90;;;;;;5031549;28;20046;-64
2022/02/16 08:39:48;;;;;;;6.55;1.65;;;-4.70;99.90;;;;;;5031883;28;20489;-63
2022/02/16 08:42:14;;;;;;;4.95;1.35;;;-4.70;99.90;;;;;;5031929;28;20413;-63
2022/02/16 08:44:39;;;;;;;7.18;1.50;;;-4.70;99.90;;;;;;5031333;28;20032;-63
2022/02/16 08:47:06;;;;;;;1.05;0.95;;;-4.70;99.90;;;;;;5031552;28;20029;-63
2022/02/16 08:49:32;;;;;;;3.22;1.25;;;-4.70;99.90;;;;;;5031366;28;20029;-63
2022/02/16 08:51:58;;;;;;;2.65;1.05;;;-4.70;99.90;;;;;;5031699;28;20034;-63
2022/02/16 08:54:24;;;;;;;4.85;1.80;;;-4.70;99.90;;;;;;5031668;28;20032;-63
2022/02/16 08:56:50;;;;;;;4.32;1.05;;;-4.80;99.90;;;;;;5031926;28;20100;-63
2022/02/16 08:59:16;;;;;;;1.45;1.13;;;-4.80;99.90;;;;;;5031737;28;20024;-63
2022/02/16 09:01:43;;;;;;;2.72;1.20;;;-4.80;99.90;;;;;;5013854;28;20172;-64
2022/02/16 09:04:09;;;;;;;3.22;1.40;;;-4.70;99.90;;;;;;5031524;28;20021;-63
2022/02/16 09:06:35;;;;;;;8.88;1.13;;;-4.80;99.90;;;;;;5031518;28;20025;-63
2022/02/16 09:09:02;;;;;;;4.13;1.10;;;-4.70;99.90;;;;;;5031508;28;20025;-63
2022/02/16 09:11:29;;;;;;;2.92;1.20;;;-4.60;99.90;;;;;;5031644;28;20051;-64
2022/02/16 09:13:56;;;;;;;2.67;1.17;;;-4.60;99.90;;;;;;5031471;28;20030;-63
2022/02/16 09:16:23;;;;;;;2.40;1.30;;;-4.60;99.90;;;;;;5031394;28;20029;-63
2022/02/16 09:18:49;;;;;;;1.73;1.30;;;-4.50;99.90;;;;;;5031424;28;20018;-64
2022/02/16 09:21:17;;;;;;;6.20;1.25;;;-4.50;99.90;;;;;;5031510;28;20361;-64
2022/02/16 09:23:43;;;;;;;3.58;1.40;;;-4.60;99.90;;;;;;5031249;28;20053;-63
2022/02/16 09:26:09;;;;;;;2.83;1.30;;;-4.60;99.90;;;;;;5031666;28;20064;-63
2022/02/16 09:28:36;;;;;;;8.68;1.50;;;-4.50;99.90;;;;;;5031540;28;20025;-63
2022/02/16 09:31:02;;;;;;;2.50;1.25;;;-4.50;99.90;;;;;;5035378;28;20026;-63
2022/02/16 09:33:29;;;;;;;8.80;1.60;;;-4.40;99.90;;;;;;5034854;28;20041;-63
2022/02/16 09:35:56;;;;;;;4.53;1.50;;;-4.50;99.90;;;;;;5035057;28;20021;-63
2022/02/16 09:38:22;;;;;;;9.80;1.48;;;-4.50;99.90;;;;;;5034157;28;20402;-63
2022/02/16 09:40:50;;;;;;;10.43;1.98;;;-4.50;99.90;;;;;;5035177;28;20028;-63
2022/02/16 09:43:21;;;;;;;10.70;2.05;;;-4.50;99.90;;;;;;5034996;28;20395;-64
2022/02/16 09:45:47;;;;;;;3.20;1.35;;;-4.50;99.90;;;;;;5034902;28;20022;-63
2022/02/16 09:48:13;;;;;;;3.67;1.42;;;-4.60;99.90;;;;;;5034777;28;20025;-63
2022/02/16 09:50:39;;;;;;;4.82;1.50;;;-4.50;99.90;;;;;;5034581;28;20385;-63
2022/02/16 09:53:05;;;;;;;1.65;1.17;;;-4.60;99.90;;;;;;5034574;28;20040;-63
2022/02/16 09:55:31;;;;;;;1.42;1.00;;;-4.60;99.90;;;;;;5034505;28;20394;-63
2022/02/16 09:57:57;;;;;;;4.70;1.30;;;-4.60;99.90;;;;;;5034549;28;20026;-63
2022/02/16 10:00:23;;;;;;;2.95;1.25;;;-4.60;99.90;;;;;;5034565;28;20025;-66
2022/02/16 10:02:49;;;;;;;5.13;1.50;;;-4.60;99.90;;;;;;5033843;28;20068;-65
2022/02/16 10:05:16;;;;;;;6.80;1.50;;;-4.60;99.90;;;;;;5034300;28;20487;-65
2022/02/16 10:07:49;;;;;;;7.05;1.60;;;-4.50;99.90;;;;;;5034267;28;20040;-66
2022/02/16 10:10:23;;;;;;;4.25;1.20;;;-4.50;99.90;;;;;;5034399;28;20029;-65
2022/02/16 10:12:51;;;;;;;4.72;1.33;;;-4.50;99.90;;;;;;5034117;28;20432;-66
2022/02/16 10:15:39;;;;;;;2.40;1.40;;;-4.40;99.90;;;;;;5034079;28;20032;-66
2022/02/16 10:18:07;;;;;;;3.40;1.30;;;-4.40;99.90;;;;;;5034483;28;20034;-65
2022/02/16 10:20:33;;;;;;;1.48;1.20;;;-4.40;99.90;;;;;;5034248;28;20030;-66
2022/02/16 10:22:58;;;;;;;5.32;1.45;;;-4.40;99.90;;;;;;5034383;28;20021;-65
2022/02/16 10:25:29;;;;;;;3.60;1.50;;;-4.40;99.90;;;;;;5033788;28;20029;-65
2022/02/16 10:28:14;;;;;;;1.67;1.30;;;-4.40;99.90;;;;;;5034010;28;20025;-66
2022/02/16 10:30:59;;;;;;;3.00;1.25;;;-4.30;99.90;;;;;;5033821;28;20073;-66
2022/02/16 10:33:33;;;;;;;2.50;1.42;;;-4.40;99.90;;;;;;5033541;28;20037;-66
2022/02/16 10:36:06;;;;;;;2.40;1.30;;;-4.40;99.90;;;;;;5033892;28;20090;-66
2022/02/16 10:38:51;;;;;;;4.95;1.40;;;-4.40;99.90;;;;;;5033210;28;20128;-66
2022/02/16 10:41:17;;;;;;;5.72;1.38;;;-4.40;99.90;;;;;;5032641;28;20022;-66
2022/02/16 10:43:43;;;;;;;7.13;1.27;;;-4.40;99.90;;;;;;5033793;28;20026;-66
2022/02/16 10:46:19;;;;;;;5.63;1.30;;;-4.40;99.90;;;;;;5015873;28;20472;-66
2022/02/16 10:48:45;;;;;;;2.35;1.10;;;-4.40;99.90;;;;;;5033515;28;20029;-66
2022/02/16 10:51:20;;;;;;;1.67;1.10;;;-4.40;99.90;;;;;;5033540;28;20388;-66
2022/02/16 10:53:51;;;;;;;4.15;1.83;;;-4.40;99.90;;;;;;5033326;28;20131;-66
2022/02/16 10:56:16;;;;;;;1.95;1.20;;;-4.30;99.90;;;;;;5033608;28;20492;-66
2022/02/16 10:58:42;;;;;;;1.95;1.27;;;-4.30;99.90;;;;;;5032969;28;20112;-67
2022/02/16 11:01:10;;;;;;;3.03;1.50;;;-4.20;99.90;;;;;;5033312;28;20022;-66
2022/02/16 11:03:39;;;;;;;1.77;1.27;;;-4.20;99.90;;;;;;5033624;28;20021;-66
2022/02/16 11:06:10;;;;;;;3.25;1.38;;;-4.20;99.90;;;;;;5032994;28;20467;-66
2022/02/16 11:08:37;;;;;;;2.42;1.00;;;-4.20;99.90;;;;;;5033280;28;20104;-65
2022/02/16 11:11:04;;;;;;;1.85;1.30;;;-4.20;99.90;;;;;;5033474;28;20026;-65
2022/02/16 11:13:36;;;;;;;3.95;1.20;;;-4.20;99.90;;;;;;5033032;28;20037;-65
2022/02/16 11:16:03;;;;;;;2.58;1.10;;;-4.20;99.90;;;;;;5033020;28;20022;-65
2022/02/16 11:18:42;;;;;;;4.45;1.13;;;-4.20;99.90;;;;;;5033253;28;20025;-64
2022/02/16 11:21:12;;;;;;;3.03;1.20;;;-4.20;99.90;;;;;;5033059;28;20025;-65
2022/02/16 11:23:47;;;;;;;13.60;2.13;;;-4.20;99.90;;;;;;5032946;28;20100;-64
2022/02/16 11:26:33;;;;;;;9.10;1.40;;;-4.20;99.90;;;;;;5033115;28;20430;-64
2022/02/16 11:29:00;;;;;;;36.95;4.50;;;-4.20;99.90;;;;;;5032900;28;20037;-66
2022/02/16 11:31:37;;;;;;;31.58;3.70;;;-4.20;99.90;;;;;;5033040;28;20025;-64
2022/02/16 11:34:11;;;;;;;11.38;1.65;;;-4.10;99.90;;;;;;5033089;28;20030;-64
2022/02/16 11:36:55;;;;;;;3.58;1.17;;;-3.50;99.90;;;;;;5032458;28;20108;-65
2022/02/16 11:40:02;;;;;;;3.75;1.30;;;-3.40;99.90;;;;;;5032733;28;20055;-64
2022/02/16 11:42:46;;;;;;;3.85;1.50;;;-3.60;99.90;;;;;;5021693;28;20396;-64
2022/02/16 11:45:13;;;;;;;4.75;1.10;;;-3.70;99.90;;;;;;5032478;28;20389;-64
2022/02/16 11:47:42;;;;;;;1.77;1.15;;;-3.80;99.90;;;;;;5014764;28;20075;-64
2022/02/16 11:50:14;;;;;;;3.83;1.92;;;-3.90;99.90;;;;;;5032533;28;20064;-64
2022/02/16 11:53:03;;;;;;;5.10;1.23;;;-3.90;99.90;;;;;;5031860;28;20030;-64
2022/02/16 11:55:37;;;;;;;6.05;1.30;;;-3.90;99.90;;;;;;5031704;28;20017;-64
2022/02/16 11:58:02;;;;;;;2.28;1.08;;;-3.90;99.90;;;;;;5031935;28;20389;-64
2022/02/16 12:00:35;;;;;;;2.53;1.27;;;-3.90;99.90;;;;;;5014440;28;20017;-64
2022/02/16 12:03:07;;;;;;;1.88;1.20;;;-3.90;99.90;;;;;;5029092;28;20071;-64
2022/02/16 12:05:55;;;;;;;3.28;1.20;;;-4.00;99.90;;;;;;5032139;28;20052;-64
2022/02/16 12:08:37;;;;;;;6.05;1.27;;;-4.00;99.90;;;;;;5032210;28;20043;-66
2022/02/16 12:11:21;;;;;;;1.52;1.10;;;-4.10;99.90;;;;;;5032294;28;20017;-66
2022/02/16 12:14:01;;;;;;;2.78;1.30;;;-4.00;99.90;;;;;;5031923;28;20052;-67
2022/02/16 12:16:30;;;;;;;5.30;1.40;;;-4.10;99.90;;;;;;5032160;28;20013;-65
2022/02/16 12:19:00;;;;;;;4.05;1.38;;;-4.00;99.90;;;;;;5031904;28;20378;-64
2022/02/16 12:21:34;;;;;;;1.40;1.30;;;-4.00;99.90;;;;;;5032246;28;20029;-64
2022/02/16 12:24:06;;;;;;;3.65;1.00;;;-3.90;99.90;;;;;;5031887;28;20025;-68
2022/02/16 12:26:44;;;;;;;1.95;1.10;;;-4.00;99.90;;;;;;5031839;28;20393;-67
2022/02/16 12:29:13;;;;;;;2.35;1.20;;;-4.00;99.90;;;;;;5031962;28;20045;-66
2022/02/16 12:31:43;;;;;;;3.53;1.27;;;-4.00;99.90;;;;;;5031805;28;20112;-66
2022/02/16 12:34:15;;;;;;;1.20;1.02;;;-4.00;99.90;;;;;;5031769;28;20037;-67
2022/02/16 12:36:49;;;;;;;1.52;1.10;;;-4.00;99.90;;;;;;5031338;28;20018;-66
2022/02/16 12:39:15;;;;;;;1.00;1.00;;;-3.00;99.90;;;;;;5031766;28;20044;-67
2022/02/16 12:41:42;;;;;;;4.28;1.30;;;-2.70;99.90;;;;;;5031678;28;20021;-66
2022/02/16 12:44:11;;;;;;;1.20;1.10;;;-3.00;99.90;;;;;;5014006;28;20025;-66
2022/02/16 12:46:41;;;;;;;3.10;1.10;;;-3.20;99.90;;;;;;5031835;28;20026;-67
2022/02/16 12:49:10;;;;;;;1.57;1.00;;;-3.40;99.90;;;;;;5028993;28;20108;-66
2022/02/16 12:51:38;;;;;;;1.42;1.20;;;-3.50;99.90;;;;;;5031027;28;20029;-66
2022/02/16 12:54:09;;;;;;;1.77;1.10;;;-3.50;99.90;;;;;;5047201;28;20022;-66
2022/02/16 12:56:38;;;;;;;1.80;1.10;;;-3.60;99.90;;;;;;5038107;28;20500;-66
2022/02/16 12:59:17;;;;;;;4.82;1.20;;;-3.70;99.90;;;;;;5039276;28;20757;-66
2022/02/16 13:01:42;;;;;;;2.50;1.35;;;-3.70;99.90;;;;;;5047393;28;20104;-66
2022/02/16 13:04:09;;;;;;;2.55;1.20;;;-3.80;99.90;;;;;;5035670;28;20115;-66
2022/02/16 13:06:40;;;;;;;3.55;1.25;;;-3.80;99.90;;;;;;5047127;28;20465;-66
2022/02/16 13:09:08;;;;;;;2.00;1.00;;;-3.80;99.90;;;;;;5046837;28;20056;-66
2022/02/16 13:11:47;;;;;;;2.03;1.15;;;-3.80;99.90;;;;;;5038617;28;20098;-66
2022/02/16 13:14:13;;;;;;;2.22;1.17;;;-3.90;99.90;;;;;;5023805;28;20104;-66
2022/02/16 13:16:50;;;;;;;3.00;0.90;;;-3.80;99.90;;;;;;5046471;28;20092;-65
2022/02/16 13:19:35;;;;;;;3.05;1.05;;;-3.50;99.90;;;;;;5047689;28;20369;-67
2022/02/16 13:22:02;;;;;;;5.22;1.30;;;-1.30;99.90;;;;;;5036714;28;20032;-66
2022/02/16 13:24:28;;;;;;;3.50;1.10;;;-1.90;99.90;;;;;;5041185;28;20016;-66
2022/02/16 13:27:02;;;;;;;3.80;1.10;;;-2.50;99.90;;;;;;5044461;28;20026;-66
2022/02/16 13:29:28;;;;;;;2.28;1.02;;;-2.90;99.90;;;;;;5049313;28;20025;-66
2022/02/16 13:31:53;;;;;;;2.42;1.50;;;-3.20;99.90;;;;;;5036718;28;20094;-67
2022/02/16 13:34:19;;;;;;;2.80;1.40;;;-3.40;99.90;;;;;;5048880;28;20064;-66
2022/02/16 13:36:45;;;;;;;2.33;1.10;;;-3.50;99.90;;;;;;5043124;28;20017;-66
2022/02/16 13:39:15;;;;;;;3.45;1.13;;;-3.60;99.90;;;;;;5041808;28;20033;-66
2022/02/16 13:41:57;;;;;;;2.38;1.00;;;-3.70;99.90;;;;;;5050416;28;20518;-66
2022/02/16 13:44:24;;;;;;;1.17;1.08;;;-3.70;99.90;;;;;;5035016;28;20463;-66
2022/02/16 13:46:50;;;;;;;3.08;1.30;;;-3.70;99.90;;;;;;5034484;28;20105;-66
2022/02/16 13:49:18;;;;;;;1.40;1.30;;;-3.70;99.90;;;;;;5031834;28;20039;-67